TimeCDT,TemperatureF,Dew PointF,Humidity,Sea Level PressureIn,VisibilityMPH,Wind Direction,Wind SpeedMPH,Gust SpeedMPH,PrecipitationIn,Events,Conditions,WindDirDegrees,DateUTC
12:15 AM,48.6,46.2,92,30.23,10.0,WNW,9.2,-,0.01,Rain,Rain,300,2012-10-05 05:15:00
12:35 AM,48.2,45.7,91,30.25,3.0,West,8.1,-,0.19,Rain,Heavy Rain,270,2012-10-05 05:35:00
12:55 AM,47.8,45.5,92,30.23,5.0,Calm,Calm,-,0.32,Rain-Thunderstorm,Heavy Thunderstorms and Rain,0,2012-10-05 05:55:00
1:15 AM,48.2,46.0,92,30.24,10.0,West,4.6,-,0.02,Rain-Thunderstorm,Rain,280,2012-10-05 06:15:00
1:35 AM,48.2,46.0,92,30.23,7.0,NW,5.8,-,0.07,Rain,Light Rain,320,2012-10-05 06:35:00
1:55 AM,48.4,45.7,90,30.24,10.0,NNW,5.8,-,0.08,Rain-Thunderstorm,Rain,340,2012-10-05 06:55:00
2:15 AM,47.8,45.5,92,30.23,7.0,North,4.6,-,0.02,Rain-Thunderstorm,Light Thunderstorms and Rain,350,2012-10-05 07:15:00
2:35 AM,47.8,45.5,92,30.25,10.0,NW,4.6,-,0.04,Rain-Thunderstorm,Light Thunderstorms and Rain,310,2012-10-05 07:35:00
2:55 AM,47.8,45.5,92,30.25,10.0,NW,5.8,-,0.05,Rain-Thunderstorm,Rain,320,2012-10-05 07:55:00
3:35 AM,47.5,44.6,90,30.23,10.0,North,5.8,-,0.06,Rain-Thunderstorm,Light Thunderstorms and Rain,360,2012-10-05 08:35:00
3:55 AM,47.5,44.8,90,30.24,7.0,NNW,3.5,-,0.08,Rain-Thunderstorm,Rain,330,2012-10-05 08:55:00
4:15 AM,47.3,45.0,92,30.24,10.0,NNW,6.9,-,0.02,Rain-Thunderstorm,Rain,330,2012-10-05 09:15:00
4:35 AM,46.9,44.6,92,30.23,10.0,North,4.6,-,0.04,Rain-Thunderstorm,Rain,350,2012-10-05 09:35:00
4:55 AM,46.4,43.9,91,30.23,10.0,North,4.6,-,0.07,Rain-Thunderstorm,Light Thunderstorms and Rain,10,2012-10-05 09:55:00
5:15 AM,45.9,43.7,92,30.21,10.0,North,8.1,-,0.02,Rain-Thunderstorm,Light Thunderstorms and Rain,10,2012-10-05 10:15:00
5:35 AM,45.5,42.8,90,30.23,10.0,North,6.9,-,0.03,Thunderstorm,Unknown,10,2012-10-05 10:35:00
5:55 AM,45.5,43.2,92,30.24,10.0,Calm,Calm,-,0.03,Rain-Thunderstorm,Light Thunderstorms and Rain,0,2012-10-05 10:55:00
6:15 AM,45.5,43.5,93,30.26,10.0,NW,3.5,-,0.01,Rain-Thunderstorm,Light Thunderstorms and Rain,310,2012-10-05 11:15:00
6:35 AM,45.7,43.5,92,30.25,10.0,Calm,Calm,-,0.01,Rain-Thunderstorm,Light Thunderstorms and Rain,0,2012-10-05 11:35:00
6:55 AM,45.5,42.8,90,30.23,7.0,NNE,5.8,-,0.04,Rain-Thunderstorm,Rain,20,2012-10-05 11:55:00
7:15 AM,45.5,43.2,92,30.23,10.0,Calm,Calm,-,N/A,Thunderstorm,Unknown,0,2012-10-05 12:15:00
7:35 AM,45.9,43.3,91,30.25,10.0,Calm,Calm,-,N/A,,Overcast,0,2012-10-05 12:35:00
7:55 AM,45.7,43.5,92,30.24,10.0,Calm,Calm,-,N/A,,Overcast,0,2012-10-05 12:55:00
8:15 AM,45.9,43.0,90,30.24,10.0,Calm,Calm,-,N/A,Thunderstorm,Overcast,0,2012-10-05 13:15:00
8:35 AM,46.0,43.0,89,30.24,10.0,Calm,Calm,-,0.01,,Overcast,0,2012-10-05 13:35:00
8:55 AM,46.4,43.5,90,30.26,10.0,Calm,Calm,-,0.01,Rain,Light Rain,0,2012-10-05 13:55:00
9:15 AM,46.4,44.6,93,30.27,10.0,West,5.8,-,N/A,Rain,Light Rain,270,2012-10-05 14:15:00
9:35 AM,46.9,43.0,86,30.25,10.0,NW,5.8,-,N/A,Rain,Light Rain,320,2012-10-05 14:35:00
9:55 AM,46.8,42.6,85,30.24,10.0,North,8.1,-,N/A,Rain-Thunderstorm,Light Thunderstorms and Rain,350,2012-10-05 14:55:00
10:15 AM,46.0,42.1,86,30.24,10.0,NNW,6.9,-,0.01,Rain,Light Rain,330,2012-10-05 15:15:00
10:35 AM,46.4,42.1,85,30.22,10.0,NNW,9.2,-,0.01,Rain,Light Rain,340,2012-10-05 15:35:00
10:55 AM,46.4,41.5,83,30.23,10.0,North,4.6,-,0.01,,Overcast,350,2012-10-05 15:55:00
11:15 AM,46.4,41.0,81,30.23,10.0,NNW,5.8,-,N/A,,Overcast,340,2012-10-05 16:15:00
11:35 AM,46.0,40.5,81,30.23,10.0,NNW,5.8,-,N/A,,Overcast,330,2012-10-05 16:35:00
11:55 AM,46.2,40.5,80,30.23,10.0,North,5.8,-,N/A,,Overcast,350,2012-10-05 16:55:00
12:15 PM,46.2,40.3,80,30.24,10.0,North,3.5,-,N/A,,Overcast,350,2012-10-05 17:15:00
12:35 PM,46.6,40.1,78,30.23,10.0,NNW,5.8,-,N/A,,Overcast,340,2012-10-05 17:35:00
12:55 PM,46.4,39.9,78,30.21,10.0,North,5.8,-,N/A,,Overcast,360,2012-10-05 17:55:00
1:15 PM,46.4,39.2,76,30.21,10.0,NNW,9.2,-,N/A,,Overcast,330,2012-10-05 18:15:00
1:35 PM,46.4,38.7,74,30.20,10.0,North,6.9,-,N/A,,Overcast,360,2012-10-05 18:35:00
1:55 PM,46.4,38.5,74,30.20,10.0,NW,10.4,-,N/A,,Overcast,320,2012-10-05 18:55:00
2:15 PM,46.4,38.1,73,30.19,10.0,NNW,9.2,-,N/A,,Overcast,330,2012-10-05 19:15:00
2:35 PM,45.9,37.2,72,30.18,10.0,NNW,10.4,-,N/A,,Overcast,330,2012-10-05 19:35:00
2:55 PM,46.0,37.6,72,30.20,10.0,NNW,10.4,-,N/A,,Overcast,330,2012-10-05 19:55:00
3:15 PM,46.4,37.8,72,30.21,10.0,NW,10.4,-,N/A,,Overcast,320,2012-10-05 20:15:00
3:35 PM,46.4,37.6,71,30.21,10.0,NW,13.8,18.4,N/A,,Overcast,310,2012-10-05 20:35:00
3:55 PM,46.4,37.9,72,30.21,10.0,NW,10.4,-,N/A,Thunderstorm,Overcast,320,2012-10-05 20:55:00
4:15 PM,46.4,35.4,66,30.21,10.0,NW,10.4,-,N/A,,Overcast,320,2012-10-05 21:15:00
4:35 PM,46.4,36.0,67,30.21,10.0,NW,11.5,17.3,N/A,,Overcast,310,2012-10-05 21:35:00
4:55 PM,46.0,35.2,66,30.21,10.0,NW,9.2,-,N/A,,Overcast,320,2012-10-05 21:55:00
5:15 PM,45.7,35.6,68,30.20,10.0,NNW,6.9,-,N/A,,Overcast,340,2012-10-05 22:15:00
5:35 PM,45.5,35.8,69,30.20,10.0,NNW,4.6,-,N/A,,Overcast,330,2012-10-05 22:35:00
5:55 PM,45.1,35.8,70,30.20,10.0,NW,5.8,-,N/A,,Overcast,320,2012-10-05 22:55:00
6:15 PM,45.0,35.6,70,30.21,10.0,NW,11.5,-,N/A,,Overcast,320,2012-10-05 23:15:00
6:35 PM,44.6,35.8,71,30.20,10.0,NNW,4.6,-,N/A,,Overcast,330,2012-10-05 23:35:00
6:55 PM,43.2,35.1,73,30.20,10.0,NW,9.2,-,N/A,,Scattered Clouds,320,2012-10-05 23:55:00
7:15 PM,41.7,35.2,78,30.20,10.0,NW,4.6,-,N/A,,Clear,320,2012-10-06 00:15:00
7:35 PM,41.7,35.1,77,30.20,10.0,WNW,4.6,-,N/A,,Clear,300,2012-10-06 00:35:00
7:55 PM,41.5,35.1,78,30.21,10.0,WNW,5.8,-,N/A,,Clear,290,2012-10-06 00:55:00
8:15 PM,41.4,35.6,80,30.21,10.0,WNW,4.6,-,N/A,,Mostly Cloudy,290,2012-10-06 01:15:00
8:35 PM,41.5,35.8,80,30.21,10.0,WNW,5.8,-,N/A,,Mostly Cloudy,290,2012-10-06 01:35:00
8:55 PM,41.2,35.6,81,30.23,10.0,WNW,6.9,-,N/A,,Scattered Clouds,300,2012-10-06 01:55:00
9:15 PM,40.3,35.6,83,30.23,10.0,WNW,5.8,-,N/A,,Clear,300,2012-10-06 02:15:00
9:35 PM,40.3,35.6,83,30.23,10.0,West,4.6,-,N/A,,Clear,280,2012-10-06 02:35:00
9:55 PM,40.1,35.4,83,30.24,10.0,West,5.8,-,N/A,,Clear,280,2012-10-06 02:55:00
10:15 PM,40.1,35.1,82,30.24,10.0,West,4.6,-,N/A,,Clear,270,2012-10-06 03:15:00
10:35 PM,40.1,34.7,81,30.24,10.0,West,4.6,-,N/A,,Clear,280,2012-10-06 03:35:00
10:55 PM,39.9,34.7,82,30.24,10.0,West,4.6,-,N/A,,Clear,270,2012-10-06 03:55:00
11:15 PM,39.6,34.7,83,30.23,10.0,West,4.6,-,N/A,,Clear,270,2012-10-06 04:15:00
11:35 PM,39.4,34.2,82,30.23,10.0,West,4.6,-,N/A,,Clear,270,2012-10-06 04:35:00
11:55 PM,38.8,34.7,85,30.21,10.0,West,5.8,-,N/A,,Clear,260,2012-10-06 04:55:00